Amlin, OH

8:37 AM EDT on March 31, 2015 (GMT -0400)
Village at Homestead | | Change Station
CLOSE
Current Station
Personal Weather Station
Location: Hilliard, OH
Elevation: 932 ft
Nearby Weather Stations

Elev 932 ft 40.04 °N, 83.18 °W | Updated 14 seconds ago

Mostly Cloudy
Mostly Cloudy
48.2 °F
Feels Like 44 °F
N
9.4
Wind Variable Wind from South
Gusts 9.4 mph

Today
High -- | Low -- °F
--% Chance of Precip.
Yesterday
High -- | Low -- °F
Precip. -- in
7:18 AM 7:55 PM
Waxing Gibbous, 86% visible
Pressure 29.75 in
Visibility 10.0 miles
Clouds Mostly Cloudy 11000 ft
Windchill 44 °F
Dew Point 36 °F
Humidity 61%
Rainfall 0.00 in
Snow Depth Not available.
UV 0 out of 12
Pollen 9.50 out of 12
Air Quality Not available.
Flu Activity Not available.
METAR KOSU 311153Z 21013G17KT 10SM BKN110 09/M02 A2974 RMK AO2 SLP072 T00891017 10100 20067 56029

More Conditions Fewer Conditions

Pressure 29.75 in
Visibility 10.0 miles
Clouds Mostly Cloudy 11000 ft
Windchill 44 °F
Dew Point 36 °F
Humidity 61%
Rainfall 0.00 in
Snow Depth Not available.
UV 0 out of 12
Pollen 9.50 out of 12
Air Quality Not available.
Flu Activity Not available.
METAR KOSU 311153Z 21013G17KT 10SM BKN110 09/M02 A2974 RMK AO2 SLP072 T00891017 10100 20067 56029

More Conditions Fewer Conditions

10-Day Weather Forecast

Almanac

Astronomy

Mar. 31, 2015 Rise Set
Actual Time
Civil Twilight
Nautical Twilight
Astronomical Twilight
Moon
Length of Visible Light
Length of Day
Tomorrow will be .
, % of the Moon is Illuminated

Today's Extremes

State Highs State Lows

Community

WunderPhotos

Upload Photos

1,809,754 photos uploaded!

WunderBlogs® & News

Nearby

Air Quality

  Air Quality AQ Index Pollutant
Not available.

Snow Depth

Station Depth Elevation

Earthquake Activity

City Distance Mag. Time & Date
Minimum magnitude displayed is 2.5.

Coastal Water Temperatures

Place Temperature

Stations

Nearby Weather Stations

Station Location Temp. Windchill Dew Point Humidity Wind Precip. Elev Updated Type